createdAt,value
2019-01-05T00:42:20.913Z,16.40
2019-01-05T01:16:13.787Z,14.30
2019-01-05T01:22:23.801Z,10.58
2019-01-05T01:43:54.150Z,9.38
2019-01-05T01:56:13.177Z,14.60
2019-01-05T02:21:18.778Z,11.15
2019-01-05T02:24:46.329Z,9.85
2019-01-05T02:27:52.594Z,10.85
2019-01-05T02:34:15.551Z,12.68
2019-01-05T02:37:32.964Z,10.72
2019-01-05T02:41:00.450Z,15.20
2019-01-05T02:44:05.634Z,9.58
2019-01-05T02:47:33.148Z,9.78
2019-01-05T02:51:00.626Z,9.15
2019-01-05T02:54:28.073Z,10.30
2019-01-05T03:00:37.647Z,8.85
2019-01-05T03:04:24.344Z,11.55
2019-01-05T03:07:51.818Z,9.65
2019-01-05T03:14:30.988Z,11.38
2019-01-05T03:17:58.593Z,13.13
2019-01-05T03:21:26.110Z,13.72
2019-01-05T03:24:53.684Z,11.73
2019-01-05T03:28:21.448Z,15.05
2019-01-05T03:31:49.310Z,13.38
2019-01-05T03:35:16.675Z,12.20
2019-01-05T03:38:34.719Z,13.75
2019-01-05T03:44:49.799Z,14.33
2019-01-05T03:48:17.226Z,13.30
2019-01-05T03:51:44.746Z,10.78
2019-01-05T03:55:12.315Z,12.50
2019-01-05T03:57:55.761Z,11.03
2019-01-05T04:01:23.404Z,11.50
2019-01-05T04:04:53.515Z,12.45
2019-01-05T04:07:59.789Z,12.25
2019-01-05T04:11:27.239Z,12.15
2019-01-05T04:14:48.986Z,11.90
2019-01-05T04:18:16.428Z,12.78
2019-01-05T04:21:44.023Z,10.43
2019-01-05T04:25:11.499Z,12.10
2019-01-05T04:28:38.955Z,12.15
2019-01-05T04:35:13.449Z,11.57
2019-01-05T04:38:40.914Z,13.18
2019-01-05T04:42:08.490Z,12.93
2019-01-05T04:45:35.913Z,15.60
2019-01-05T04:49:03.389Z,12.50
2019-01-05T04:52:27.725Z,10.28
2019-01-05T05:02:23.893Z,14.20
2019-01-05T05:05:51.333Z,14.90
2019-01-05T05:09:18.837Z,12.00
2019-01-05T05:15:56.315Z,14.10
2019-01-05T05:19:23.907Z,14.05
2019-01-05T05:22:30.887Z,13.35
2019-01-05T05:25:58.484Z,12.73
2019-01-05T05:32:41.092Z,13.75
2019-01-05T05:36:08.555Z,11.73
2019-01-05T05:39:36.018Z,11.18
2019-01-05T05:43:03.523Z,17.37
2019-01-05T05:46:17.802Z,14.47
2019-01-05T05:49:23.272Z,12.43
2019-01-05T05:52:50.787Z,15.55
2019-01-05T05:59:29.444Z,13.62
2019-01-05T06:09:07.949Z,15.15
2019-01-05T06:15:50.636Z,11.85
2019-01-05T06:19:09.468Z,11.88
2019-01-05T06:22:39.779Z,15.75
2019-01-05T06:26:07.483Z,11.38
2019-01-05T06:29:35.140Z,12.98
2019-01-05T06:33:02.620Z,11.30
2019-01-05T06:36:30.147Z,12.70
2019-01-05T06:39:57.583Z,10.48
2019-01-05T06:43:25.071Z,14.60
2019-01-05T06:46:52.535Z,11.75
2019-01-05T06:49:57.969Z,11.88
2019-01-05T06:57:11.878Z,12.40
2019-01-05T07:03:55.283Z,14.28
2019-01-05T07:07:22.767Z,13.45
2019-01-05T07:10:51.874Z,13.38
2019-01-05T07:14:19.336Z,13.53
2019-01-05T07:20:47.720Z,12.80
2019-01-05T07:24:15.286Z,12.40
2019-01-05T07:27:42.755Z,12.78
2019-01-05T07:31:10.163Z,12.80
2019-01-05T07:37:59.710Z,14.60
2019-01-05T07:41:27.288Z,13.40
2019-01-05T07:44:31.895Z,13.18
2019-01-05T07:47:59.379Z,15.58
2019-01-05T07:51:26.813Z,13.87
2019-01-05T07:54:54.300Z,17.35
2019-01-05T08:01:45.469Z,15.20
2019-01-05T08:08:24.539Z,15.75
2019-01-05T08:11:51.999Z,18.53
2019-01-05T08:15:22.385Z,13.73
2019-01-05T08:18:49.929Z,16.48
2019-01-05T08:21:55.856Z,14.38
2019-01-05T08:25:26.449Z,17.63
2019-01-05T08:28:53.993Z,13.38
2019-01-05T08:32:21.470Z,17.10
2019-01-05T08:35:51.802Z,16.90
2019-01-05T08:39:22.137Z,27.17
2019-01-05T08:42:49.701Z,23.93
2019-01-05T08:46:17.182Z,23.07
2019-01-05T08:49:44.748Z,26.27
2019-01-05T08:53:00.925Z,24.53
2019-01-05T08:59:10.579Z,29.70
2019-01-05T09:02:38.173Z,29.43
2019-01-05T09:06:27.953Z,24.23
2019-01-05T09:09:55.454Z,25.57
2019-01-05T09:13:23.002Z,26.63
2019-01-05T09:20:05.095Z,19.93
2019-01-05T09:23:32.604Z,20.93
2019-01-05T09:26:38.167Z,20.73
2019-01-05T09:30:07.211Z,13.70
2019-01-05T09:33:34.647Z,17.70
2019-01-05T09:37:02.342Z,13.63
2019-01-05T09:40:29.827Z,10.37
2019-01-05T09:43:36.183Z,13.77
2019-01-05T09:47:03.644Z,9.20
2019-01-05T09:50:31.296Z,9.47
2019-01-05T09:57:16.041Z,10.00
2019-01-05T10:00:43.502Z,10.57
2019-01-05T10:04:10.919Z,11.00
2019-01-05T10:07:38.373Z,14.00
2019-01-05T10:11:05.944Z,12.67
2019-01-05T10:14:33.444Z,8.67
2019-01-05T10:18:01.925Z,11.90
2019-01-05T10:21:29.494Z,10.53
2019-01-05T10:24:57.122Z,12.40
2019-01-05T10:31:37.913Z,11.37
2019-01-05T10:35:08.964Z,8.90
2019-01-05T10:38:36.413Z,7.40
2019-01-05T10:42:03.911Z,12.90
2019-01-05T10:45:31.412Z,9.80
2019-01-05T10:48:58.916Z,13.83
2019-01-05T10:52:26.422Z,18.63
2019-01-05T10:55:53.909Z,12.20
2019-01-05T11:02:03.597Z,7.07
2019-01-05T11:05:08.089Z,9.57
2019-01-05T11:08:38.567Z,11.47
2019-01-05T11:12:06.034Z,11.97
2019-01-05T11:14:50.777Z,10.07
2019-01-05T11:18:18.412Z,9.37
2019-01-05T11:21:45.943Z,9.53
2019-01-05T11:24:30.520Z,10.43
2019-01-05T11:27:58.192Z,7.50
2019-01-05T11:31:25.828Z,9.53
2019-01-05T11:34:53.378Z,8.43
2019-01-05T11:37:36.863Z,11.03
2019-01-05T11:41:04.351Z,8.77
2019-01-05T11:44:31.975Z,10.50
2019-01-05T11:47:59.507Z,10.60
2019-01-05T11:51:27.044Z,8.50
2019-01-05T11:54:56.108Z,14.80
2019-01-05T12:01:16.597Z,12.67
2019-01-05T12:04:44.151Z,11.53
2019-01-05T12:08:11.716Z,20.43
2019-01-05T12:11:39.282Z,13.57
2019-01-05T12:15:06.733Z,13.30
2019-01-05T12:18:34.410Z,9.97
2019-01-05T12:22:01.877Z,11.93
2019-01-05T12:25:29.336Z,11.10
2019-01-05T12:28:56.797Z,16.87
2019-01-05T12:32:20.983Z,13.90
2019-01-05T12:36:09.604Z,10.83
2019-01-05T12:39:37.051Z,15.33
2019-01-05T12:43:04.548Z,12.93
2019-01-05T12:53:22.145Z,14.20
2019-01-05T13:00:06.004Z,16.40
2019-01-05T13:03:33.505Z,13.47
2019-01-05T13:10:11.696Z,15.97
2019-01-05T13:13:39.689Z,14.17
2019-01-05T13:17:07.406Z,15.53
2019-01-05T13:20:35.123Z,11.63
2019-01-05T13:24:02.656Z,11.90
2019-01-05T13:27:09.026Z,15.87
2019-01-05T13:30:36.692Z,11.37
2019-01-05T13:37:22.017Z,14.77
2019-01-05T13:40:27.980Z,14.87
2019-01-05T13:43:55.509Z,16.27
2019-01-05T13:47:01.182Z,14.17
2019-01-05T13:50:49.682Z,11.47
2019-01-05T13:54:08.955Z,13.50
2019-01-05T14:43:24.949Z,28.53
2019-01-05T15:18:38.475Z,16.17
2019-01-05T15:45:41.391Z,24.47
2019-01-05T15:54:38.639Z,26.73
2019-01-05T16:13:06.423Z,23.12
2019-01-05T16:37:03.269Z,51.25
2019-01-05T16:40:08.211Z,53.83
2019-01-05T17:04:45.522Z,48.63
2019-01-05T17:22:13.636Z,58.25
2019-01-05T18:19:35.407Z,61.02
2019-01-05T18:25:32.654Z,76.37
2019-01-05T18:37:54.520Z,68.02
2019-01-05T18:59:27.961Z,54.80
2019-01-05T19:54:32.565Z,152.87
2019-01-05T20:09:58.006Z,116.40
2019-01-05T20:40:24.996Z,66.40
2019-01-05T20:43:35.098Z,54.95
2019-01-05T21:32:49.251Z,170.53
2019-01-05T21:54:01.497Z,72.67
2019-01-05T21:57:06.704Z,85.20
2019-01-05T22:12:07.358Z,91.50
2019-01-05T22:21:22.477Z,109.05
2019-01-05T22:24:27.339Z,121.33
2019-01-05T23:16:02.246Z,119.62
2019-01-05T23:22:16.335Z,108.00
2019-01-05T23:37:39.338Z,120.55
